sensor_id;sensor_type;location;lat;lon;timestamp;pressure;altitude;pressure_sealevel;temperature;humidity
40730;BME280;26418;50.070;8.436;2023-07-29T00:01:15;99407.81;;;18.13;100.00
40730;BME280;26418;50.070;8.436;2023-07-29T00:03:41;99409.75;;;18.12;100.00
40730;BME280;26418;50.070;8.436;2023-07-29T00:06:07;99412.47;;;18.12;100.00
40730;BME280;26418;50.070;8.436;2023-07-29T00:08:32;99394.47;;;18.11;100.00
40730;BME280;26418;50.070;8.436;2023-07-29T00:10:58;99409.44;;;18.17;100.00
40730;BME280;26418;50.070;8.436;2023-07-29T00:13:23;99399.66;;;18.16;100.00
40730;BME280;26418;50.070;8.436;2023-07-29T00:15:49;99407.13;;;18.19;100.00
40730;BME280;26418;50.070;8.436;2023-07-29T00:18:14;99405.59;;;18.22;100.00
40730;BME280;26418;50.070;8.436;2023-07-29T00:20:40;99392.28;;;18.20;100.00
40730;BME280;26418;50.070;8.436;2023-07-29T00:23:06;99399.34;;;18.21;100.00
40730;BME280;26418;50.070;8.436;2023-07-29T00:25:31;99392.34;;;18.24;100.00
40730;BME280;26418;50.070;8.436;2023-07-29T00:27:59;99377.03;;;18.19;100.00
40730;BME280;26418;50.070;8.436;2023-07-29T00:30:24;99384.00;;;18.17;100.00
40730;BME280;26418;50.070;8.436;2023-07-29T00:32:50;99394.31;;;18.23;100.00
40730;BME280;26418;50.070;8.436;2023-07-29T00:35:15;99387.25;;;18.22;100.00
40730;BME280;26418;50.070;8.436;2023-07-29T00:37:41;99373.13;;;18.20;100.00
40730;BME280;26418;50.070;8.436;2023-07-29T00:40:14;99366.00;;;18.16;100.00
40730;BME280;26418;50.070;8.436;2023-07-29T00:42:41;99375.88;;;18.20;100.00
40730;BME280;26418;50.070;8.436;2023-07-29T00:45:08;99365.63;;;18.17;100.00
40730;BME280;26418;50.070;8.436;2023-07-29T00:47:34;99360.47;;;18.12;100.00
40730;BME280;26418;50.070;8.436;2023-07-29T00:50:00;99362.38;;;18.08;100.00
40730;BME280;26418;50.070;8.436;2023-07-29T00:52:25;99367.09;;;18.11;100.00
40730;BME280;26418;50.070;8.436;2023-07-29T00:54:51;99364.97;;;18.01;100.00
40730;BME280;26418;50.070;8.436;2023-07-29T00:57:18;99360.75;;;18.03;100.00
40730;BME280;26418;50.070;8.436;2023-07-29T00:59:44;99366.22;;;18.03;100.00
40730;BME280;26418;50.070;8.436;2023-07-29T01:02:10;99347.06;;;18.03;100.00
40730;BME280;26418;50.070;8.436;2023-07-29T01:04:36;99358.84;;;18.07;100.00
40730;BME280;26418;50.070;8.436;2023-07-29T01:12:28;99360.91;;;18.14;100.00
40730;BME280;26418;50.070;8.436;2023-07-29T01:14:59;99353.91;;;18.17;100.00
40730;BME280;26418;50.070;8.436;2023-07-29T01:17:42;99355.81;;;18.13;100.00
40730;BME280;26418;50.070;8.436;2023-07-29T01:20:11;99351.94;;;18.17;100.00
40730;BME280;26418;50.070;8.436;2023-07-29T01:22:39;99345.31;;;18.18;100.00
40730;BME280;26418;50.070;8.436;2023-07-29T01:25:05;99338.69;;;18.19;100.00
40730;BME280;26418;50.070;8.436;2023-07-29T01:27:31;99330.81;;;18.14;100.00
40730;BME280;26418;50.070;8.436;2023-07-29T01:29:57;99342.19;;;18.16;100.00
40730;BME280;26418;50.070;8.436;2023-07-29T01:32:37;99340.16;;;18.13;100.00
40730;BME280;26418;50.070;8.436;2023-07-29T01:35:22;99343.28;;;18.12;100.00
40730;BME280;26418;50.070;8.436;2023-07-29T01:37:52;99351.56;;;18.15;100.00
40730;BME280;26418;50.070;8.436;2023-07-29T01:40:22;99345.59;;;18.10;100.00
40730;BME280;26418;50.070;8.436;2023-07-29T01:42:49;99358.56;;;18.13;100.00
40730;BME280;26418;50.070;8.436;2023-07-29T01:45:14;99342.41;;;18.07;100.00
40730;BME280;26418;50.070;8.436;2023-07-29T01:47:40;99346.56;;;18.21;100.00
40730;BME280;26418;50.070;8.436;2023-07-29T01:50:07;99340.28;;;18.20;100.00
40730;BME280;26418;50.070;8.436;2023-07-29T01:52:33;99340.28;;;18.20;100.00
40730;BME280;26418;50.070;8.436;2023-07-29T01:54:59;99334.81;;;18.20;100.00
40730;BME280;26418;50.070;8.436;2023-07-29T01:57:24;99341.88;;;18.21;100.00
40730;BME280;26418;50.070;8.436;2023-07-29T01:59:50;99331.66;;;18.18;100.00
40730;BME280;26418;50.070;8.436;2023-07-29T02:02:16;99333.22;;;18.19;100.00
40730;BME280;26418;50.070;8.436;2023-07-29T02:04:41;99330.06;;;18.17;100.00
40730;BME280;26418;50.070;8.436;2023-07-29T02:07:07;99329.34;;;18.20;100.00
40730;BME280;26418;50.070;8.436;2023-07-29T02:09:32;99316.81;;;18.19;100.00
40730;BME280;26418;50.070;8.436;2023-07-29T02:11:58;99308.16;;;18.17;100.00
40730;BME280;26418;50.070;8.436;2023-07-29T02:14:23;99319.19;;;18.21;100.00
40730;BME280;26418;50.070;8.436;2023-07-29T02:16:49;99323.88;;;18.20;100.00
40730;BME280;26418;50.070;8.436;2023-07-29T02:19:15;99315.66;;;18.20;100.00
40730;BME280;26418;50.070;8.436;2023-07-29T02:21:41;99319.53;;;18.19;100.00
40730;BME280;26418;50.070;8.436;2023-07-29T02:24:06;99308.25;;;18.21;100.00
40730;BME280;26418;50.070;8.436;2023-07-29T02:26:32;99306.72;;;18.23;100.00
40730;BME280;26418;50.070;8.436;2023-07-29T02:28:57;99300.88;;;18.25;100.00
40730;BME280;26418;50.070;8.436;2023-07-29T02:31:24;99305.56;;;18.25;100.00
40730;BME280;26418;50.070;8.436;2023-07-29T02:33:51;99310.66;;;18.26;100.00
40730;BME280;26418;50.070;8.436;2023-07-29T02:36:17;99309.50;;;18.27;100.00
40730;BME280;26418;50.070;8.436;2023-07-29T02:38:44;99308.31;;;18.25;100.00
40730;BME280;26418;50.070;8.436;2023-07-29T02:41:10;99308.34;;;18.28;100.00
40730;BME280;26418;50.070;8.436;2023-07-29T02:43:37;99306.78;;;18.27;100.00
40730;BME280;26418;50.070;8.436;2023-07-29T02:46:03;99301.72;;;18.29;100.00
40730;BME280;26418;50.070;8.436;2023-07-29T02:48:29;99286.41;;;18.25;100.00
40730;BME280;26418;50.070;8.436;2023-07-29T02:50:55;99282.84;;;18.24;100.00
40730;BME280;26418;50.070;8.436;2023-07-29T02:53:25;99288.38;;;18.28;100.00
40730;BME280;26418;50.070;8.436;2023-07-29T02:55:50;99283.63;;;18.21;100.00
40730;BME280;26418;50.070;8.436;2023-07-29T02:58:16;99288.00;;;18.26;100.00
40730;BME280;26418;50.070;8.436;2023-07-29T03:00:41;99282.84;;;18.24;100.00
40730;BME280;26418;50.070;8.436;2023-07-29T03:03:08;99279.69;;;18.22;100.00
40730;BME280;26418;50.070;8.436;2023-07-29T03:05:34;99263.69;;;18.24;100.00
40730;BME280;26418;50.070;8.436;2023-07-29T03:07:59;99269.13;;;18.20;100.00
40730;BME280;26418;50.070;8.436;2023-07-29T03:10:25;99267.13;;;18.17;100.00
40730;BME280;26418;50.070;8.436;2023-07-29T03:12:51;99263.16;;;18.15;100.00
40730;BME280;26418;50.070;8.436;2023-07-29T03:15:16;99263.16;;;18.15;100.00
40730;BME280;26418;50.070;8.436;2023-07-29T03:17:42;99264.69;;;18.12;100.00
40730;BME280;26418;50.070;8.436;2023-07-29T03:20:08;99258.03;;;18.10;100.00
40730;BME280;26418;50.070;8.436;2023-07-29T03:22:33;99262.69;;;18.09;100.00
40730;BME280;26418;50.070;8.436;2023-07-29T03:24:59;99258.03;;;18.10;100.00
40730;BME280;26418;50.070;8.436;2023-07-29T03:27:24;99257.59;;;18.07;100.00
40730;BME280;26418;50.070;8.436;2023-07-29T03:29:50;99262.28;;;18.07;100.00
40730;BME280;26418;50.070;8.436;2023-07-29T03:32:16;99268.09;;;18.05;100.00
40730;BME280;26418;50.070;8.436;2023-07-29T03:34:42;99273.56;;;18.05;100.00
40730;BME280;26418;50.070;8.436;2023-07-29T03:37:07;99274.38;;;18.06;100.00
40730;BME280;26418;50.070;8.436;2023-07-29T03:39:33;99267.34;;;18.05;100.00
40730;BME280;26418;50.070;8.436;2023-07-29T03:41:59;99273.28;;;18.11;100.00
40730;BME280;26418;50.070;8.436;2023-07-29T03:44:24;99275.22;;;18.10;100.00
40730;BME280;26418;50.070;8.436;2023-07-29T03:46:50;99252.13;;;18.07;100.00
40730;BME280;26418;50.070;8.436;2023-07-29T03:49:16;99251.81;;;18.13;100.00
40730;BME280;26418;50.070;8.436;2023-07-29T03:51:41;99250.63;;;18.14;100.00
40730;BME280;26418;50.070;8.436;2023-07-29T03:54:07;99238.91;;;18.13;100.00
40730;BME280;26418;50.070;8.436;2023-07-29T03:56:32;99257.28;;;18.13;100.00
40730;BME280;26418;50.070;8.436;2023-07-29T03:59:06;99253.38;;;18.14;100.00
40730;BME280;26418;50.070;8.436;2023-07-29T04:01:32;99247.06;;;18.10;100.00
40730;BME280;26418;50.070;8.436;2023-07-29T04:03:58;99257.75;;;18.18;100.00
40730;BME280;26418;50.070;8.436;2023-07-29T04:06:24;99259.72;;;18.18;100.00
40730;BME280;26418;50.070;8.436;2023-07-29T04:08:49;99254.22;;;18.18;100.00
40730;BME280;26418;50.070;8.436;2023-07-29T04:11:15;99243.66;;;18.16;100.00
40730;BME280;26418;50.070;8.436;2023-07-29T04:13:40;99247.91;;;18.14;100.00
40730;BME280;26418;50.070;8.436;2023-07-29T04:16:07;99255.44;;;18.20;100.00
40730;BME280;26418;50.070;8.436;2023-07-29T04:18:32;99253.50;;;18.21;100.00
40730;BME280;26418;50.070;8.436;2023-07-29T04:20:58;99244.81;;;18.15;100.00
40730;BME280;26418;50.070;8.436;2023-07-29T04:23:24;99246.03;;;18.18;100.00
40730;BME280;26418;50.070;8.436;2023-07-29T04:25:49;99238.59;;;18.18;100.00
40730;BME280;26418;50.070;8.436;2023-07-29T04:28:15;99241.69;;;18.17;100.00
40730;BME280;26418;50.070;8.436;2023-07-29T04:30:41;99249.50;;;18.15;100.00
40730;BME280;26418;50.070;8.436;2023-07-29T04:33:07;99254.22;;;18.18;100.00
40730;BME280;26418;50.070;8.436;2023-07-29T04:35:33;99255.81;;;18.19;100.00
40730;BME280;26418;50.070;8.436;2023-07-29T04:37:58;99242.84;;;18.16;100.00
40730;BME280;26418;50.070;8.436;2023-07-29T04:40:24;99249.91;;;18.17;100.00
40730;BME280;26418;50.070;8.436;2023-07-29T04:42:50;99247.97;;;18.17;100.00
40730;BME280;26418;50.070;8.436;2023-07-29T04:45:16;99244.06;;;18.18;100.00
40730;BME280;26418;50.070;8.436;2023-07-29T04:47:42;99248.75;;;18.18;100.00
40730;BME280;26418;50.070;8.436;2023-07-29T04:50:07;99243.28;;;18.18;100.00
40730;BME280;26418;50.070;8.436;2023-07-29T04:52:33;99233.13;;;18.18;100.00
40730;BME280;26418;50.070;8.436;2023-07-29T04:54:59;99235.91;;;18.22;100.00
40730;BME280;26418;50.070;8.436;2023-07-29T04:57:24;99244.91;;;18.22;100.00
40730;BME280;26418;50.070;8.436;2023-07-29T04:59:50;99240.22;;;18.23;100.00
40730;BME280;26418;50.070;8.436;2023-07-29T05:02:15;99237.47;;;18.23;100.00
40730;BME280;26418;50.070;8.436;2023-07-29T05:04:41;99245.41;;;18.28;100.00
40730;BME280;26418;50.070;8.436;2023-07-29T05:07:06;99244.63;;;18.31;100.00
40730;BME280;26418;50.070;8.436;2023-07-29T05:09:32;99248.22;;;18.35;100.00
40730;BME280;26418;50.070;8.436;2023-07-29T05:11:57;99244.75;;;18.38;100.00
40730;BME280;26418;50.070;8.436;2023-07-29T05:14:23;99240.50;;;18.41;100.00
40730;BME280;26418;50.070;8.436;2023-07-29T05:16:48;99228.31;;;18.38;100.00
40730;BME280;26418;50.070;8.436;2023-07-29T05:19:14;99234.63;;;18.43;100.00
40730;BME280;26418;50.070;8.436;2023-07-29T05:21:39;99245.63;;;18.46;100.00
40730;BME280;26418;50.070;8.436;2023-07-29T05:24:05;99236.22;;;18.44;100.00
40730;BME280;26418;50.070;8.436;2023-07-29T05:26:31;99228.09;;;18.51;100.00
40730;BME280;26418;50.070;8.436;2023-07-29T05:28:57;99240.63;;;18.52;100.00
40730;BME280;26418;50.070;8.436;2023-07-29T05:31:22;99232.84;;;18.54;100.00
40730;BME280;26418;50.070;8.436;2023-07-29T05:33:48;99243.09;;;18.61;100.00
40730;BME280;26418;50.070;8.436;2023-07-29T05:36:14;99251.28;;;18.61;100.00
40730;BME280;26418;50.070;8.436;2023-07-29T05:38:39;99241.50;;;18.60;100.00
40730;BME280;26418;50.070;8.436;2023-07-29T05:41:05;99251.38;;;18.68;100.00
40730;BME280;26418;50.070;8.436;2023-07-29T05:43:31;99248.75;;;18.75;100.00
40730;BME280;26418;50.070;8.436;2023-07-29T05:45:56;99257.22;;;18.93;100.00
40730;BME280;26418;50.070;8.436;2023-07-29T05:48:22;99265.69;;;19.15;100.00
40730;BME280;26418;50.070;8.436;2023-07-29T05:50:47;99263.53;;;19.35;100.00
40730;BME280;26418;50.070;8.436;2023-07-29T05:53:14;99269.59;;;19.52;100.00
40730;BME280;26418;50.070;8.436;2023-07-29T05:55:40;99274.78;;;19.60;100.00
40730;BME280;26418;50.070;8.436;2023-07-29T05:58:05;99271.63;;;19.62;100.00
40730;BME280;26418;50.070;8.436;2023-07-29T06:00:31;99261.06;;;19.60;100.00
40730;BME280;26418;50.070;8.436;2023-07-29T06:02:57;99262.97;;;19.56;100.00
40730;BME280;26418;50.070;8.436;2023-07-29T06:05:22;99266.88;;;19.52;100.00
40730;BME280;26418;50.070;8.436;2023-07-29T06:07:48;99269.19;;;19.50;100.00
40730;BME280;26418;50.070;8.436;2023-07-29T06:10:15;99287.59;;;19.49;100.00
40730;BME280;26418;50.070;8.436;2023-07-29T06:12:46;99299.25;;;19.39;100.00
40730;BME280;26418;50.070;8.436;2023-07-29T06:15:12;99287.38;;;19.27;100.00
40730;BME280;26418;50.070;8.436;2023-07-29T06:17:38;99281.03;;;19.23;100.00
40730;BME280;26418;50.070;8.436;2023-07-29T06:20:04;99279.03;;;19.16;100.00
40730;BME280;26418;50.070;8.436;2023-07-29T06:22:31;99271.97;;;19.15;100.00
40730;BME280;26418;50.070;8.436;2023-07-29T06:24:56;99264.50;;;19.16;100.00
40730;BME280;26418;50.070;8.436;2023-07-29T06:27:22;99270.03;;;19.20;100.00
40730;BME280;26418;50.070;8.436;2023-07-29T06:29:49;99264.97;;;19.22;100.00
40730;BME280;26418;50.070;8.436;2023-07-29T06:32:15;99262.59;;;19.16;100.00
40730;BME280;26418;50.070;8.436;2023-07-29T06:34:41;99266.47;;;19.15;100.00
40730;BME280;26418;50.070;8.436;2023-07-29T06:37:06;99264.09;;;19.14;100.00
40730;BME280;26418;50.070;8.436;2023-07-29T06:39:32;99269.53;;;19.10;100.00
40730;BME280;26418;50.070;8.436;2023-07-29T06:41:58;99277.72;;;19.07;100.00
40730;BME280;26418;50.070;8.436;2023-07-29T06:44:23;99274.19;;;19.06;100.00
40730;BME280;26418;50.070;8.436;2023-07-29T06:46:49;99285.91;;;19.03;100.00
40730;BME280;26418;50.070;8.436;2023-07-29T06:49:14;99287.44;;;19.00;100.00
40730;BME280;26418;50.070;8.436;2023-07-29T06:51:40;99296.03;;;18.99;100.00
40730;BME280;26418;50.070;8.436;2023-07-29T06:54:05;99286.63;;;18.96;100.00
40730;BME280;26418;50.070;8.436;2023-07-29T06:56:31;99290.44;;;18.92;100.00
40730;BME280;26418;50.070;8.436;2023-07-29T06:58:57;99279.84;;;18.90;100.00
40730;BME280;26418;50.070;8.436;2023-07-29T07:01:22;99262.63;;;18.90;100.00
40730;BME280;26418;50.070;8.436;2023-07-29T07:03:48;99235.56;;;18.84;100.00
40730;BME280;26418;50.070;8.436;2023-07-29T07:06:13;99239.50;;;18.87;100.00
40730;BME280;26418;50.070;8.436;2023-07-29T07:08:39;99270.44;;;18.88;100.00
40730;BME280;26418;50.070;8.436;2023-07-29T07:11:04;99276.72;;;18.88;100.00
40730;BME280;26418;50.070;8.436;2023-07-29T07:13:30;99275.13;;;18.87;100.00
40730;BME280;26418;50.070;8.436;2023-07-29T07:15:56;99280.31;;;18.92;100.00
40730;BME280;26418;50.070;8.436;2023-07-29T07:18:22;99285.81;;;18.96;100.00
40730;BME280;26418;50.070;8.436;2023-07-29T07:20:49;99293.25;;;18.95;100.00
40730;BME280;26418;50.070;8.436;2023-07-29T07:23:15;99303.88;;;19.00;100.00
40730;BME280;26418;50.070;8.436;2023-07-29T07:25:41;99307.00;;;18.99;100.00
40730;BME280;26418;50.070;8.436;2023-07-29T07:28:08;99296.28;;;18.90;100.00
40730;BME280;26418;50.070;8.436;2023-07-29T07:30:33;99293.84;;;18.81;100.00
40730;BME280;26418;50.070;8.436;2023-07-29T07:32:59;99310.69;;;18.83;100.00
40730;BME280;26418;50.070;8.436;2023-07-29T07:35:24;99312.28;;;18.84;100.00
40730;BME280;26418;50.070;8.436;2023-07-29T07:37:50;99313.97;;;18.93;100.00
40730;BME280;26418;50.070;8.436;2023-07-29T07:40:16;99307.00;;;18.99;100.00
40730;BME280;26418;50.070;8.436;2023-07-29T07:42:41;99309.31;;;18.97;100.00
40730;BME280;26418;50.070;8.436;2023-07-29T07:45:07;99299.81;;;18.91;100.00
40730;BME280;26418;50.070;8.436;2023-07-29T07:47:32;99311.28;;;18.96;100.00
40730;BME280;26418;50.070;8.436;2023-07-29T07:49:58;99312.03;;;18.93;100.00
40730;BME280;26418;50.070;8.436;2023-07-29T07:52:23;99308.41;;;18.89;100.00
40730;BME280;26418;50.070;8.436;2023-07-29T07:54:52;99310.69;;;18.83;100.00
40730;BME280;26418;50.070;8.436;2023-07-29T07:57:20;99320.50;;;18.84;100.00
40730;BME280;26418;50.070;8.436;2023-07-29T07:59:46;99331.09;;;18.86;100.00
40730;BME280;26418;50.070;8.436;2023-07-29T08:02:12;99319.00;;;18.91;100.00
40730;BME280;26418;50.070;8.436;2023-07-29T08:04:38;99328.88;;;18.95;100.00
40730;BME280;26418;50.070;8.436;2023-07-29T08:07:04;99318.00;;;19.03;100.00
40730;BME280;26418;50.070;8.436;2023-07-29T08:09:30;99319.72;;;19.14;100.00
40730;BME280;26418;50.070;8.436;2023-07-29T08:11:55;99322.59;;;19.25;100.00
40730;BME280;26418;50.070;8.436;2023-07-29T08:14:21;99327.44;;;19.39;100.00
40730;BME280;26418;50.070;8.436;2023-07-29T08:16:46;99327.34;;;19.66;100.00
40730;BME280;26418;50.070;8.436;2023-07-29T08:19:12;99317.78;;;19.90;100.00
40730;BME280;26418;50.070;8.436;2023-07-29T08:21:37;99314.41;;;20.08;100.00
40730;BME280;26418;50.070;8.436;2023-07-29T08:24:03;99302.75;;;20.22;100.00
40730;BME280;26418;50.070;8.436;2023-07-29T08:26:29;99303.69;;;20.44;99.93
40730;BME280;26418;50.070;8.436;2023-07-29T08:28:54;99301.06;;;20.69;97.97
40730;BME280;26418;50.070;8.436;2023-07-29T08:31:20;99302.00;;;20.92;97.46
40730;BME280;26418;50.070;8.436;2023-07-29T08:33:45;99303.31;;;21.30;97.68
40730;BME280;26418;50.070;8.436;2023-07-29T08:36:11;99314.88;;;21.83;96.20
40730;BME280;26418;50.070;8.436;2023-07-29T08:38:37;99303.03;;;22.33;88.40
40730;BME280;26418;50.070;8.436;2023-07-29T08:41:19;99322.28;;;22.73;86.33
40730;BME280;26418;50.070;8.436;2023-07-29T08:46:29;99309.50;;;23.26;83.42
40730;BME280;26418;50.070;8.436;2023-07-29T08:48:55;99309.00;;;23.46;81.14
40730;BME280;26418;50.070;8.436;2023-07-29T08:51:23;99302.53;;;23.70;78.84
40730;BME280;26418;50.070;8.436;2023-07-29T08:53:49;99306.28;;;24.02;77.51
40730;BME280;26418;50.070;8.436;2023-07-29T08:56:15;99300.94;;;24.26;74.85
40730;BME280;26418;50.070;8.436;2023-07-29T08:58:42;99288.09;;;24.50;74.06
40730;BME280;26418;50.070;8.436;2023-07-29T09:01:08;99296.94;;;24.72;72.73
40730;BME280;26418;50.070;8.436;2023-07-29T09:03:33;99299.59;;;24.83;70.78
40730;BME280;26418;50.070;8.436;2023-07-29T09:06:02;99305.53;;;24.82;70.82
40730;BME280;26418;50.070;8.436;2023-07-29T09:08:28;99302.03;;;24.77;71.06
40730;BME280;26418;50.070;8.436;2023-07-29T09:10:54;99298.06;;;24.78;70.75
40730;BME280;26418;50.070;8.436;2023-07-29T09:13:21;99298.56;;;24.66;70.45
40730;BME280;26418;50.070;8.436;2023-07-29T09:15:46;99300.03;;;24.40;70.38
40730;BME280;26418;50.070;8.436;2023-07-29T09:18:16;99307.28;;;24.23;72.21
40730;BME280;26418;50.070;8.436;2023-07-29T09:20:41;99301.44;;;24.17;71.87
40730;BME280;26418;50.070;8.436;2023-07-29T09:23:09;99312.97;;;24.05;73.14
40730;BME280;26418;50.070;8.436;2023-07-29T09:25:39;99314.16;;;24.04;72.53
40730;BME280;26418;50.070;8.436;2023-07-29T09:28:09;99304.16;;;24.21;71.20
40730;BME280;26418;50.070;8.436;2023-07-29T09:30:37;99301.47;;;24.52;71.45
40730;BME280;26418;50.070;8.436;2023-07-29T09:33:03;99311.44;;;24.84;69.27
40730;BME280;26418;50.070;8.436;2023-07-29T09:35:32;99309.91;;;25.14;69.24
40730;BME280;26418;50.070;8.436;2023-07-29T09:37:58;99305.50;;;25.47;67.46
40730;BME280;26418;50.070;8.436;2023-07-29T09:40:24;99317.72;;;25.77;66.38
40730;BME280;26418;50.070;8.436;2023-07-29T09:42:52;99301.78;;;25.85;65.29
40730;BME280;26418;50.070;8.436;2023-07-29T09:45:25;99304.91;;;25.87;64.70
40730;BME280;26418;50.070;8.436;2023-07-29T09:47:53;99313.41;;;26.00;63.85
40730;BME280;26418;50.070;8.436;2023-07-29T09:50:25;99319.59;;;25.84;62.92
40730;BME280;26418;50.070;8.436;2023-07-29T09:52:53;99312.59;;;25.76;63.72
40730;BME280;26418;50.070;8.436;2023-07-29T09:55:20;99302.91;;;25.64;64.34
40730;BME280;26418;50.070;8.436;2023-07-29T09:57:46;99304.28;;;25.76;64.50
40730;BME280;26418;50.070;8.436;2023-07-29T10:00:12;99305.09;;;25.76;63.93
40730;BME280;26418;50.070;8.436;2023-07-29T10:02:43;99305.19;;;25.69;64.37
40730;BME280;26418;50.070;8.436;2023-07-29T10:05:10;99292.56;;;25.92;63.20
40730;BME280;26418;50.070;8.436;2023-07-29T10:07:37;99289.09;;;26.35;62.18
40730;BME280;26418;50.070;8.436;2023-07-29T10:10:07;99289.84;;;26.79;61.85
40730;BME280;26418;50.070;8.436;2023-07-29T10:12:34;99286.94;;;27.07;60.28
40730;BME280;26418;50.070;8.436;2023-07-29T10:15:03;99288.59;;;27.21;58.66
40730;BME280;26418;50.070;8.436;2023-07-29T10:17:29;99282.63;;;27.22;58.52
40730;BME280;26418;50.070;8.436;2023-07-29T10:19:56;99286.06;;;27.10;58.21
40730;BME280;26418;50.070;8.436;2023-07-29T10:22:28;99292.44;;;26.90;58.35
40730;BME280;26418;50.070;8.436;2023-07-29T10:25:03;99288.19;;;26.62;58.76
40730;BME280;26418;50.070;8.436;2023-07-29T10:27:38;99298.84;;;26.19;60.20
40730;BME280;26418;50.070;8.436;2023-07-29T10:30:07;99279.13;;;25.90;61.09
40730;BME280;26418;50.070;8.436;2023-07-29T10:32:34;99288.16;;;25.70;62.08
40730;BME280;26418;50.070;8.436;2023-07-29T10:34:59;99292.97;;;25.66;61.48
40730;BME280;26418;50.070;8.436;2023-07-29T10:37:25;99282.75;;;25.63;62.07
40730;BME280;26418;50.070;8.436;2023-07-29T10:39:53;99282.38;;;25.61;62.31
40730;BME280;26418;50.070;8.436;2023-07-29T10:42:19;99289.69;;;25.75;62.06
40730;BME280;26418;50.070;8.436;2023-07-29T10:44:49;99286.91;;;25.99;61.39
40730;BME280;26418;50.070;8.436;2023-07-29T10:47:17;99283.25;;;26.29;60.97
40730;BME280;26418;50.070;8.436;2023-07-29T10:49:44;99278.13;;;26.28;60.27
40730;BME280;26418;50.070;8.436;2023-07-29T10:52:14;99281.44;;;25.95;60.65
40730;BME280;26418;50.070;8.436;2023-07-29T10:54:45;99278.56;;;25.51;61.94
40730;BME280;26418;50.070;8.436;2023-07-29T10:57:15;99280.34;;;25.07;62.54
40730;BME280;26418;50.070;8.436;2023-07-29T10:59:41;99287.06;;;24.75;64.48
40730;BME280;26418;50.070;8.436;2023-07-29T11:02:19;99286.94;;;24.44;65.50
40730;BME280;26418;50.070;8.436;2023-07-29T11:04:50;99275.56;;;24.34;66.20
40730;BME280;26418;50.070;8.436;2023-07-29T11:17:42;99274.47;;;23.08;67.85
40730;BME280;26418;50.070;8.436;2023-07-29T11:20:09;99272.38;;;23.42;66.64
40730;BME280;26418;50.070;8.436;2023-07-29T11:22:36;99263.28;;;24.01;64.68
40730;BME280;26418;50.070;8.436;2023-07-29T11:25:02;99251.53;;;24.70;62.64
40730;BME280;26418;50.070;8.436;2023-07-29T11:27:28;99251.47;;;25.35;60.51
40730;BME280;26418;50.070;8.436;2023-07-29T11:29:58;99258.22;;;26.13;59.71
40730;BME280;26418;50.070;8.436;2023-07-29T11:32:25;99248.22;;;26.99;57.36
40730;BME280;26418;50.070;8.436;2023-07-29T11:34:51;99242.66;;;27.36;55.68
40730;BME280;26418;50.070;8.436;2023-07-29T11:37:16;99253.91;;;27.49;55.09
40730;BME280;26418;50.070;8.436;2023-07-29T11:39:43;99246.22;;;27.86;52.05
40730;BME280;26418;50.070;8.436;2023-07-29T11:42:13;99245.00;;;28.04;51.00
40730;BME280;26418;50.070;8.436;2023-07-29T11:44:38;99235.97;;;28.00;51.29
40730;BME280;26418;50.070;8.436;2023-07-29T11:47:08;99228.75;;;28.48;51.05
40730;BME280;26418;50.070;8.436;2023-07-29T11:49:34;99227.44;;;29.08;49.98
40730;BME280;26418;50.070;8.436;2023-07-29T11:52:01;99220.09;;;29.40;47.63
40730;BME280;26418;50.070;8.436;2023-07-29T11:54:27;99230.00;;;29.67;46.88
40730;BME280;26418;50.070;8.436;2023-07-29T11:56:53;99232.13;;;29.37;47.53
40730;BME280;26418;50.070;8.436;2023-07-29T11:59:19;99221.56;;;29.32;46.46
40730;BME280;26418;50.070;8.436;2023-07-29T12:01:45;99223.50;;;29.06;47.90
40730;BME280;26418;50.070;8.436;2023-07-29T12:04:11;99222.38;;;28.77;48.59
40730;BME280;26418;50.070;8.436;2023-07-29T12:06:38;99225.97;;;28.19;49.61
40730;BME280;26418;50.070;8.436;2023-07-29T12:09:04;99229.38;;;27.93;49.79
40730;BME280;26418;50.070;8.436;2023-07-29T12:11:30;99220.56;;;27.82;49.52
40730;BME280;26418;50.070;8.436;2023-07-29T12:13:56;99218.63;;;27.29;49.15
40730;BME280;26418;50.070;8.436;2023-07-29T12:16:21;99211.69;;;26.64;50.08
40730;BME280;26418;50.070;8.436;2023-07-29T12:18:49;99231.50;;;26.43;52.01
40730;BME280;26418;50.070;8.436;2023-07-29T12:21:15;99229.88;;;26.45;52.92
40730;BME280;26418;50.070;8.436;2023-07-29T12:23:41;99207.75;;;27.02;49.20
40730;BME280;26418;50.070;8.436;2023-07-29T12:26:06;99217.63;;;27.56;46.91
40730;BME280;26418;50.070;8.436;2023-07-29T12:28:32;99221.50;;;27.59;46.87
40730;BME280;26418;50.070;8.436;2023-07-29T12:30:58;99223.66;;;27.51;46.67
40730;BME280;26418;50.070;8.436;2023-07-29T12:33:35;99211.16;;;27.76;46.99
40730;BME280;26418;50.070;8.436;2023-07-29T12:36:03;99220.22;;;28.26;47.12
40730;BME280;26418;50.070;8.436;2023-07-29T12:38:29;99220.94;;;28.85;43.90
40730;BME280;26418;50.070;8.436;2023-07-29T12:40:55;99228.06;;;28.86;42.95
40730;BME280;26418;50.070;8.436;2023-07-29T12:43:21;99214.59;;;28.72;42.84
40730;BME280;26418;50.070;8.436;2023-07-29T12:45:49;99216.94;;;28.44;43.78
40730;BME280;26418;50.070;8.436;2023-07-29T12:48:14;99209.63;;;28.04;44.57
40730;BME280;26418;50.070;8.436;2023-07-29T12:50:40;99211.16;;;27.59;45.89
40730;BME280;26418;50.070;8.436;2023-07-29T12:53:07;99221.72;;;27.15;46.43
40730;BME280;26418;50.070;8.436;2023-07-29T12:55:33;99223.31;;;26.76;46.20
40730;BME280;26418;50.070;8.436;2023-07-29T12:57:59;99225.13;;;26.46;47.46
40730;BME280;26418;50.070;8.436;2023-07-29T13:00:24;99231.84;;;26.25;46.74
40730;BME280;26418;50.070;8.436;2023-07-29T13:02:50;99223.88;;;26.03;46.13
40730;BME280;26418;50.070;8.436;2023-07-29T13:05:16;99233.19;;;25.93;46.71
40730;BME280;26418;50.070;8.436;2023-07-29T13:07:43;99231.69;;;25.88;48.30